Time;durP1;ratioP1;P1;durP2;ratioP2;P2;SDS_P1;SDS_P2;PMS_P1;PMS_P2;Temp;Humidity;BMP_temperature;BMP_pressure;BME280_temperature;BME280_humidity;BME280_pressure;Samples;Min_cycle;Max_cycle;Signal;HPM_P1;HPM_P2
2024/03/10 00:00:39;;;;;;;55.80;29.77;;;;;;;6.96;100.00;100157.91;5065372;56;1142842;-75
2024/03/10 00:05:44;;;;;;;57.17;30.13;;;;;;;6.91;100.00;100155.59;5036461;56;1140796;-82
2024/03/10 00:10:50;;;;;;;62.57;31.00;;;;;;;6.85;100.00;100145.51;5079159;56;1140787;-77
2024/03/10 00:15:55;;;;;;;51.35;28.15;;;;;;;6.74;100.00;100149.31;5078927;56;1140724;-77
2024/03/10 00:21:01;;;;;;;54.93;30.47;;;;;;;6.65;100.00;100148.16;5096979;56;1140775;-79
2024/03/10 00:26:07;;;;;;;61.07;30.17;;;;;;;6.60;100.00;100144.15;5078370;56;1142893;-75
2024/03/10 00:31:12;;;;;;;63.50;30.30;;;;;;;6.58;100.00;100140.78;5079198;56;1141237;-75
2024/03/10 00:36:18;;;;;;;61.43;30.70;;;;;;;6.53;100.00;100142.42;5098774;56;1140639;-71
2024/03/10 00:41:24;;;;;;;69.13;32.90;;;;;;;6.48;100.00;100131.84;5078911;56;1140683;-75
2024/03/10 00:46:30;;;;;;;63.60;29.73;;;;;;;6.43;100.00;100129.98;5066166;56;1147222;-75
2024/03/10 00:51:35;;;;;;;56.40;30.20;;;;;;;6.38;100.00;100134.72;5015484;57;1140935;-82
2024/03/10 00:56:41;;;;;;;62.40;30.50;;;;;;;6.35;100.00;100133.13;5031869;56;1222092;-73
2024/03/10 01:01:48;;;;;;;57.97;29.70;;;;;;;6.31;100.00;100129.02;5078686;56;1140899;-84
2024/03/10 01:06:54;;;;;;;60.13;30.73;;;;;;;6.26;100.00;100123.25;5098640;56;1140858;-79
2024/03/10 01:11:59;;;;;;;56.40;30.47;;;;;;;6.19;100.00;100120.17;5078781;56;1141328;-69
2024/03/10 01:17:06;;;;;;;55.27;29.33;;;;;;;6.16;100.00;100118.20;5078721;56;1140654;-80
2024/03/10 01:22:17;;;;;;;59.43;29.67;;;;;;;6.12;100.00;100114.94;5098613;56;1140958;-81
2024/03/10 01:27:21;;;;;;;58.77;28.73;;;;;;;6.13;100.00;100115.78;5078585;56;1140813;-79
2024/03/10 01:32:27;;;;;;;52.37;28.03;;;;;;;6.14;100.00;100106.97;5078198;56;1140722;-81
2024/03/10 01:37:33;;;;;;;54.80;29.30;;;;;;;6.18;100.00;100104.52;5078099;56;1142943;-77
2024/03/10 01:42:39;;;;;;;61.33;29.67;;;;;;;6.18;100.00;100096.17;5098053;56;1140896;-73
2024/03/10 01:47:44;;;;;;;51.07;26.87;;;;;;;6.19;100.00;100097.02;5045153;57;1140558;-79
2024/03/10 01:52:52;;;;;;;49.85;27.13;;;;;;;6.18;100.00;100092.23;4996789;57;1140813;-82
2024/03/10 01:57:57;;;;;;;51.90;27.27;;;;;;;6.15;100.00;100088.95;5015804;57;1140589;-73
2024/03/10 02:03:03;;;;;;;64.13;31.07;;;;;;;6.14;100.00;100092.52;4996238;56;1140740;-78
2024/03/10 02:08:09;;;;;;;53.30;27.23;;;;;;;6.17;100.00;100084.45;5056877;56;1142855;-80
2024/03/10 02:13:16;;;;;;;55.20;31.80;;;;;;;6.19;100.00;100084.72;5098626;57;1143112;-76
2024/03/10 02:18:21;;;;;;;66.10;32.10;;;;;;;6.21;100.00;100092.03;5078434;56;1140509;-83
2024/03/10 02:23:35;;;;;;;56.37;29.57;;;;;;;6.19;100.00;100083.41;5077987;57;1141111;-81
2024/03/10 02:29:14;;;;;;;48.78;27.26;;;;;;;6.15;100.00;100070.58;5096332;56;1140739;-77
2024/03/10 02:50:13;;;;;;;54.93;28.27;;;;;;;6.19;100.00;100068.13;5097236;55;1140733;-73
2024/03/10 02:55:19;;;;;;;60.83;27.60;;;;;;;6.19;100.00;100072.06;5079126;56;1140855;-80
2024/03/10 03:00:24;;;;;;;53.87;27.47;;;;;;;6.20;100.00;100071.13;5079083;56;1140625;-77
2024/03/10 03:05:31;;;;;;;57.00;29.23;;;;;;;6.22;100.00;100069.24;5078373;56;1144816;-78
2024/03/10 03:10:36;;;;;;;54.23;30.27;;;;;;;6.23;100.00;100072.23;5099128;56;1140500;-77
2024/03/10 03:15:42;;;;;;;53.87;28.90;;;;;;;6.18;100.00;100062.03;5081111;56;1140904;-75
2024/03/10 03:20:48;;;;;;;52.53;27.57;;;;;;;6.15;100.00;100063.55;4980932;57;1140518;-76
2024/03/10 03:25:56;;;;;;;60.63;31.10;;;;;;;6.15;100.00;100059.61;5085079;56;1142720;-77
2024/03/10 03:31:03;;;;;;;49.20;27.00;;;;;;;6.14;100.00;100064.48;4922009;57;1141193;-73
2024/03/10 03:36:09;;;;;;;59.73;28.93;;;;;;;6.14;100.00;100064.48;4995771;58;1141218;-81
2024/03/10 03:41:14;;;;;;;52.00;27.53;;;;;;;6.16;100.00;100065.70;5015642;58;1140770;-76
2024/03/10 03:46:20;;;;;;;55.47;29.37;;;;;;;6.16;100.00;100064.39;5022576;56;1142789;-76
2024/03/10 03:51:25;;;;;;;53.03;28.77;;;;;;;6.14;100.00;100059.23;5079306;55;1140724;-82
2024/03/10 03:56:31;;;;;;;55.30;26.67;;;;;;;6.12;100.00;100057.64;5027295;56;1140855;-78
2024/03/10 04:01:38;;;;;;;53.57;29.43;;;;;;;6.10;100.00;100050.37;5015758;56;1141026;-77
2024/03/10 04:06:44;;;;;;;58.60;30.00;;;;;;;6.09;100.00;100058.72;4976946;56;1141240;-72
2024/03/10 04:11:49;;;;;;;53.42;26.40;;;;;;;6.04;100.00;100046.83;5053022;56;1140771;-78
2024/03/10 04:16:55;;;;;;;54.00;28.03;;;;;;;6.03;100.00;100052.55;5098521;56;1140534;-82
2024/03/10 04:22:01;;;;;;;53.33;27.30;;;;;;;6.03;100.00;100042.52;5079166;56;1143074;-79
2024/03/10 04:27:11;;;;;;;61.67;29.60;;;;;;;6.00;100.00;100041.78;5078562;57;1143067;-79
2024/03/10 04:32:16;;;;;;;56.53;28.73;;;;;;;5.99;100.00;100041.41;5091961;56;1140734;-81
2024/03/10 04:37:22;;;;;;;58.27;27.60;;;;;;;5.97;100.00;100041.13;5078506;56;1141174;-73
2024/03/10 04:42:27;;;;;;;50.75;27.48;;;;;;;5.96;100.00;100043.38;5078131;56;1141116;-81
2024/03/10 04:47:36;;;;;;;51.80;28.50;;;;;;;5.96;100.00;100032.41;5078139;56;1143007;-78
2024/03/10 04:52:41;;;;;;;54.33;29.87;;;;;;;5.98;100.00;100033.63;5098257;56;1142526;-75
2024/03/10 04:57:48;;;;;;;56.17;29.37;;;;;;;5.98;100.00;100031.84;5078802;56;1140852;-76
2024/03/10 05:02:54;;;;;;;55.70;28.60;;;;;;;5.97;100.00;100028.84;5078842;56;1140524;-83
2024/03/10 05:07:59;;;;;;;49.73;25.63;;;;;;;5.95;100.00;100030.77;5098378;57;1140496;-77
2024/03/10 05:13:05;;;;;;;59.38;30.88;;;;;;;5.98;100.00;100034.94;5043310;56;1142653;-77
2024/03/10 05:18:11;;;;;;;58.20;30.23;;;;;;;5.94;100.00;100036.95;4991349;58;1141132;-78
2024/03/10 05:23:16;;;;;;;55.07;27.50;;;;;;;5.93;100.00;100043.14;5011320;57;1140557;-80
2024/03/10 05:28:22;;;;;;;57.17;28.57;;;;;;;5.91;100.00;100046.33;4995512;57;1140656;-79
2024/03/10 05:33:27;;;;;;;59.50;29.70;;;;;;;5.91;100.00;100038.46;4995380;56;1140876;-70
2024/03/10 05:38:33;;;;;;;51.65;27.58;;;;;;;5.88;100.00;100045.22;4996525;56;1140698;-76
2024/03/10 05:43:38;;;;;;;51.10;28.87;;;;;;;5.88;100.00;100049.59;5015605;56;1140574;-80
2024/03/10 05:48:45;;;;;;;51.88;28.45;;;;;;;5.85;100.00;100041.45;5008596;56;1140887;-78
2024/03/10 05:53:51;;;;;;;59.65;29.92;;;;;;;5.83;100.00;100036.77;4980719;57;1140560;-72
2024/03/10 05:58:56;;;;;;;56.03;27.67;;;;;;;5.83;100.00;100045.95;5050564;57;1140580;-81
2024/03/10 06:04:02;;;;;;;50.27;28.30;;;;;;;5.82;100.00;100035.55;5027578;56;1140568;-79
2024/03/10 06:09:07;;;;;;;50.77;26.27;;;;;;;5.83;100.00;100044.63;4990964;57;1140786;-75
2024/03/10 06:14:13;;;;;;;53.80;29.57;;;;;;;5.87;100.00;100042.19;5098207;56;1143206;-79
2024/03/10 06:30:06;;;;;;;47.05;24.67;;;;;;;5.95;100.00;100065.36;5099963;56;1140811;-74
2024/03/10 06:35:12;;;;;;;55.77;27.37;;;;;;;6.00;100.00;100054.91;5117469;56;1142959;-75
2024/03/10 06:40:17;;;;;;;47.77;27.60;;;;;;;6.02;100.00;100053.48;5095791;56;1140934;-83
2024/03/10 06:45:23;;;;;;;49.87;26.13;;;;;;;6.03;100.00;100057.80;5099064;56;1140607;-73
2024/03/10 06:50:31;;;;;;;52.83;26.97;;;;;;;6.05;100.00;100049.36;5078444;56;1140855;-72
2024/03/10 06:55:36;;;;;;;48.27;23.77;;;;;;;6.08;100.00;100054.88;5119712;55;1140695;-78
2024/03/10 07:00:41;;;;;;;44.93;25.33;;;;;;;6.13;100.00;100056.23;5036823;55;1141058;-79
2024/03/10 07:05:47;;;;;;;46.80;26.77;;;;;;;6.17;100.00;100052.94;5010975;57;1142968;-74
2024/03/10 07:10:52;;;;;;;48.85;23.65;;;;;;;6.18;100.00;100055.94;5117857;56;1140991;-73
2024/03/10 07:15:58;;;;;;;56.15;29.32;;;;;;;6.19;100.00;100057.63;5096663;56;1143084;-79
2024/03/10 07:21:05;;;;;;;47.27;25.92;;;;;;;6.21;100.00;100067.55;5098150;56;1142539;-77
2024/03/10 07:26:11;;;;;;;43.97;24.63;;;;;;;6.21;100.00;100070.18;5119076;56;1140550;-75
2024/03/10 07:31:16;;;;;;;46.97;25.07;;;;;;;6.19;100.00;100043.18;5070009;56;1140450;-73
2024/03/10 07:36:26;;;;;;;50.67;26.53;;;;;;;6.19;100.00;100043.18;5002951;57;1142929;-79
2024/03/10 07:41:32;;;;;;;47.17;27.67;;;;;;;6.17;100.00;100055.09;5065142;56;1142848;-75
2024/03/10 07:46:37;;;;;;;49.50;25.77;;;;;;;6.15;100.00;100053.52;5074558;56;1140456;-78
2024/03/10 07:51:43;;;;;;;49.47;26.90;;;;;;;6.16;100.00;100045.53;5053372;56;1143060;-82
2024/03/10 07:56:49;;;;;;;50.58;27.48;;;;;;;6.22;100.00;100048.23;5053888;56;1142838;-79
2024/03/10 08:01:54;;;;;;;49.80;27.53;;;;;;;6.26;100.00;100054.47;5010029;56;1147902;-77
2024/03/10 08:07:00;;;;;;;47.67;25.82;;;;;;;6.33;100.00;100041.78;5052018;56;1140599;-78
2024/03/10 08:12:07;;;;;;;46.43;25.03;;;;;;;6.42;100.00;100047.70;5060548;56;1142759;-83
2024/03/10 08:17:13;;;;;;;44.17;25.40;;;;;;;6.52;100.00;100045.31;5058932;56;1142714;-76
2024/03/10 08:22:20;;;;;;;42.20;23.27;;;;;;;6.69;100.00;100037.12;5052780;56;1140830;-71
2024/03/10 08:27:25;;;;;;;46.43;25.70;;;;;;;6.69;100.00;100037.12;5048702;56;1140745;-80
2024/03/10 08:32:31;;;;;;;49.33;26.07;;;;;;;6.77;100.00;100040.04;5050383;56;1142665;-77
2024/03/10 08:37:41;;;;;;;51.47;26.77;;;;;;;6.82;100.00;100045.83;5074972;56;1142919;-80
2024/03/10 08:42:49;;;;;;;47.65;27.62;;;;;;;6.89;100.00;100044.91;5057808;56;1140881;-76
2024/03/10 08:47:55;;;;;;;38.73;23.57;;;;;;;6.91;100.00;100038.60;5032142;56;1140588;-73
2024/03/10 08:53:02;;;;;;;44.38;25.45;;;;;;;6.96;100.00;100032.56;5015414;56;1142924;-76
2024/03/10 08:58:08;;;;;;;55.20;29.63;;;;;;;6.99;100.00;100023.15;5011761;57;1140750;-76
2024/03/10 09:03:14;;;;;;;61.60;34.23;;;;;;;7.08;100.00;100033.95;4991961;57;1140940;-75
2024/03/10 09:08:19;;;;;;;45.23;24.73;;;;;;;7.11;100.00;100034.58;4964251;57;1140486;-72
2024/03/10 09:13:25;;;;;;;48.47;25.23;;;;;;;7.21;100.00;100043.48;4994725;57;1142999;-83
2024/03/10 09:18:31;;;;;;;49.57;25.87;;;;;;;7.29;100.00;100024.54;4985257;57;1142776;-76
2024/03/10 09:23:39;;;;;;;43.00;25.23;;;;;;;7.36;100.00;100031.02;4988667;57;1140897;-81
2024/03/10 09:28:45;;;;;;;49.37;27.60;;;;;;;7.40;100.00;100038.59;4980925;56;1140727;-83
2024/03/10 09:33:51;;;;;;;49.30;25.47;;;;;;;7.51;100.00;100030.39;4993935;55;1140897;-82
2024/03/10 09:38:59;;;;;;;46.98;26.00;;;;;;;7.70;100.00;100039.95;5008519;56;1142805;-72
2024/03/10 09:44:06;;;;;;;49.25;26.20;;;;;;;7.80;100.00;100041.41;5079172;55;1142912;-81
2024/03/10 09:49:17;;;;;;;43.60;25.80;;;;;;;7.83;100.00;100043.83;4889548;56;1141317;-85
2024/03/10 09:54:23;;;;;;;45.17;26.57;;;;;;;7.84;100.00;100044.19;5054834;56;1141067;-77
2024/03/10 09:59:47;;;;;;;55.90;29.47;;;;;;;7.83;100.00;100038.09;5057055;56;1140701;-74
2024/03/10 10:04:59;;;;;;;43.37;24.67;;;;;;;7.86;100.00;100027.34;5058401;56;1140891;-85
2024/03/10 10:10:03;;;;;;;49.42;26.15;;;;;;;7.98;100.00;100008.45;5064980;57;1142941;-82
2024/03/10 10:15:09;;;;;;;74.33;28.43;;;;;;;8.11;100.00;99999.52;5045392;55;1142857;-82
2024/03/10 10:20:15;;;;;;;49.08;27.62;;;;;;;8.23;100.00;99998.25;4998563;57;1140867;-78
2024/03/10 10:25:22;;;;;;;49.50;27.00;;;;;;;8.38;100.00;99990.52;4929659;57;1138756;-83
2024/03/10 10:30:30;;;;;;;41.57;24.03;;;;;;;8.47;100.00;99987.16;4906332;58;1138914;-73
2024/03/10 10:35:45;;;;;;;39.70;25.07;;;;;;;8.56;100.00;99981.17;4949504;58;1138825;-80
2024/03/10 10:40:56;;;;;;;39.67;24.13;;;;;;;8.86;100.00;99961.30;4969479;57;1138839;-78
2024/03/10 10:46:01;;;;;;;42.07;24.03;;;;;;;9.17;100.00;99955.21;4947370;58;1138964;-75
2024/03/10 10:51:08;;;;;;;36.85;21.90;;;;;;;9.39;100.00;99955.64;4940790;57;1138795;-75
2024/03/10 10:56:14;;;;;;;38.83;23.17;;;;;;;9.51;100.00;99959.91;4909745;57;1140883;-73
2024/03/10 11:01:21;;;;;;;51.27;28.37;;;;;;;9.58;100.00;99954.98;4954049;58;1140656;-78
2024/03/10 11:06:30;;;;;;;39.03;26.37;;;;;;;9.71;100.00;99960.44;4874871;57;1140832;-81
2024/03/10 11:11:48;;;;;;;44.63;26.93;;;;;;;9.75;100.00;99961.03;4944746;58;1140896;-79
2024/03/10 11:17:21;;;;;;;43.83;23.67;;;;;;;9.75;100.00;99957.06;4977814;57;1141026;-69
2024/03/10 11:22:30;;;;;;;38.00;21.30;;;;;;;9.69;100.00;99954.92;4952283;57;1140761;-74
2024/03/10 11:27:44;;;;;;;40.67;22.10;;;;;;;9.60;100.00;99963.13;4949364;58;1140669;-76
2024/03/10 11:32:54;;;;;;;44.07;24.00;;;;;;;9.53;100.00;99952.23;4948112;57;1219049;-79
2024/03/10 11:38:01;;;;;;;39.27;21.10;;;;;;;9.49;100.00;99949.95;4968389;57;1138894;-73
2024/03/10 11:43:08;;;;;;;40.40;23.18;;;;;;;9.47;100.00;99950.08;4944730;57;1138568;-74
2024/03/10 11:48:14;;;;;;;34.20;22.00;;;;;;;9.50;100.00;99938.44;4958431;57;1138887;-80
2024/03/10 11:53:19;;;;;;;45.10;22.23;;;;;;;9.54;100.00;99935.91;4930967;57;1141035;-78
2024/03/10 11:58:25;;;;;;;38.27;21.77;;;;;;;9.60;100.00;99938.53;4880332;56;1140867;-77
2024/03/10 12:03:31;;;;;;;32.30;20.80;;;;;;;9.66;100.00;99926.97;4949371;57;1140755;-75
2024/03/10 12:08:42;;;;;;;42.40;24.77;;;;;;;9.74;100.00;99913.98;4967508;57;1140915;-79
2024/03/10 12:13:53;;;;;;;37.53;21.00;;;;;;;9.85;100.00;99906.47;4960129;58;1140806;-82
2024/03/10 12:18:58;;;;;;;45.53;26.10;;;;;;;9.98;100.00;99899.17;4963488;56;1140603;-75
2024/03/10 12:24:06;;;;;;;40.40;22.30;;;;;;;10.13;100.00;99892.58;4963142;58;1140858;-76
2024/03/10 12:29:13;;;;;;;53.83;29.30;;;;;;;10.29;100.00;99887.33;4946203;58;1142907;-78
2024/03/10 12:34:19;;;;;;;82.77;30.27;;;;;;;10.47;100.00;99888.38;4950844;57;1142846;-78
2024/03/10 12:39:25;;;;;;;71.33;31.77;;;;;;;10.56;100.00;99876.98;4903371;57;1143325;-79
2024/03/10 12:44:31;;;;;;;44.80;24.43;;;;;;;10.58;100.00;99874.56;4910967;58;1143001;-74
2024/03/10 12:49:38;;;;;;;36.00;21.03;;;;;;;10.59;100.00;99862.19;4910252;58;1152325;-70
2024/03/10 12:54:44;;;;;;;38.80;21.53;;;;;;;10.52;100.00;99872.48;4968375;58;1143259;-78
2024/03/10 12:59:50;;;;;;;32.53;19.77;;;;;;;10.50;100.00;99861.68;4969774;57;1143083;-80
2024/03/10 13:04:56;;;;;;;35.10;20.10;;;;;;;10.52;100.00;99869.00;4991245;57;1143086;-79
2024/03/10 13:10:02;;;;;;;31.25;20.92;;;;;;;10.62;100.00;99862.41;5011052;57;1143116;-77
2024/03/10 13:15:11;;;;;;;42.08;20.90;;;;;;;10.98;100.00;99849.05;4991286;56;1142835;-73
2024/03/10 13:20:17;;;;;;;37.50;19.10;;;;;;;11.36;100.00;99838.45;4990149;57;1143168;-75
2024/03/10 13:25:23;;;;;;;35.83;21.13;;;;;;;11.57;100.00;99838.30;5007695;57;1143004;-77
2024/03/10 13:30:28;;;;;;;49.40;20.40;;;;;;;11.61;100.00;99840.98;4991182;58;1143227;-75
2024/03/10 13:35:34;;;;;;;36.60;21.80;;;;;;;11.59;100.00;99821.30;4913429;58;1143351;-73
2024/03/10 13:40:39;;;;;;;37.07;22.27;;;;;;;11.57;100.00;99824.56;4929814;57;1142977;-70
2024/03/10 13:45:45;;;;;;;32.63;19.87;;;;;;;11.54;100.00;99804.98;4911258;57;1142846;-77
2024/03/10 13:50:50;;;;;;;40.93;22.33;;;;;;;11.61;100.00;99811.85;4990220;57;1142724;-77
2024/03/10 13:55:57;;;;;;;44.53;23.23;;;;;;;11.65;100.00;99813.25;5011040;57;1142920;-76
2024/03/10 14:01:04;;;;;;;36.77;20.40;;;;;;;11.53;100.00;99819.20;4989972;57;1143033;-78
2024/03/10 14:06:10;;;;;;;32.45;18.57;;;;;;;11.50;100.00;99816.83;4991089;57;1142789;-73
2024/03/10 14:11:16;;;;;;;40.50;22.53;;;;;;;11.58;100.00;99831.53;5010997;57;1142744;-73
2024/03/10 14:16:23;;;;;;;30.37;18.77;;;;;;;11.59;100.00;99809.86;4990555;57;1142897;-81
2024/03/10 14:21:30;;;;;;;38.23;20.13;;;;;;;11.53;100.00;99819.69;4987110;57;1143091;-76
2024/03/10 14:26:36;;;;;;;30.50;18.48;;;;;;;11.47;100.00;99810.97;4990883;58;1143213;-77
2024/03/10 14:31:42;;;;;;;35.53;19.23;;;;;;;11.41;100.00;99807.10;5011786;57;1142985;-77
2024/03/10 14:36:47;;;;;;;31.60;19.07;;;;;;;11.38;100.00;99805.22;4991361;57;1143093;-78
2024/03/10 14:41:54;;;;;;;33.77;18.67;;;;;;;11.36;100.00;99810.65;4991512;57;1142986;-77
2024/03/10 14:46:59;;;;;;;33.38;19.55;;;;;;;11.33;100.00;99812.25;4990582;57;1142775;-79
2024/03/10 14:52:07;;;;;;;32.47;18.57;;;;;;;11.31;100.00;99798.80;4911588;57;1143020;-76
2024/03/10 14:57:12;;;;;;;32.30;17.32;;;;;;;11.30;100.00;99787.89;4911438;57;1142676;-79
2024/03/10 15:02:18;;;;;;;30.53;16.00;;;;;;;11.28;100.00;99781.42;4931569;57;1142965;-73
2024/03/10 15:07:26;;;;;;;37.40;17.67;;;;;;;11.24;100.00;99769.43;4959278;57;1142963;-76
2024/03/10 15:12:32;;;;;;;26.33;17.60;;;;;;;11.22;100.00;99771.38;4991374;58;1142981;-75
2024/03/10 15:17:38;;;;;;;34.27;18.90;;;;;;;11.20;100.00;99775.48;4944944;57;1143064;-75
2024/03/10 15:22:45;;;;;;;27.58;17.20;;;;;;;11.20;100.00;99774.66;4969917;57;1143065;-71
2024/03/10 15:27:50;;;;;;;32.37;18.47;;;;;;;11.16;100.00;99769.28;4988222;57;1142803;-84
2024/03/10 15:32:56;;;;;;;42.00;23.60;;;;;;;11.13;100.00;99769.59;4990895;58;1142859;-73
2024/03/10 15:38:04;;;;;;;70.30;45.80;;;;;;;11.09;100.00;99769.52;4935514;56;1142751;-81
2024/03/10 15:43:12;;;;;;;39.20;21.73;;;;;;;11.05;100.00;99770.77;5010807;56;1142932;-81
2024/03/10 15:48:16;;;;;;;27.00;16.30;;;;;;;11.01;100.00;99778.63;4984897;57;1142866;-74
2024/03/10 15:53:23;;;;;;;37.83;19.13;;;;;;;10.97;100.00;99772.80;5029328;57;1143098;-71
2024/03/10 15:58:28;;;;;;;28.35;16.82;;;;;;;10.93;100.00;99778.85;4980809;57;1142691;-84
2024/03/10 16:03:46;;;;;;;30.97;16.97;;;;;;;10.90;100.00;99773.83;5011305;57;1142521;-82
2024/03/10 16:08:52;;;;;;;26.83;15.67;;;;;;;10.88;100.00;99774.45;5007292;57;1142881;-78
2024/03/10 16:14:01;;;;;;;27.60;17.10;;;;;;;10.86;100.00;99770.27;5010747;57;1143025;-83
2024/03/10 16:19:09;;;;;;;33.50;17.45;;;;;;;10.84;100.00;99776.22;4997730;57;1143392;-71
2024/03/10 16:24:15;;;;;;;30.40;17.75;;;;;;;10.80;100.00;99778.30;4953668;56;1143187;-77
2024/03/10 16:29:21;;;;;;;25.73;16.43;;;;;;;10.78;100.00;99784.20;5001963;56;1142864;-78
2024/03/10 16:34:27;;;;;;;25.17;15.33;;;;;;;10.76;100.00;99795.89;4998415;56;1142972;-73
2024/03/10 16:39:33;;;;;;;27.25;16.10;;;;;;;10.73;100.00;99801.45;4941565;57;1142853;-77
2024/03/10 16:44:41;;;;;;;30.93;17.17;;;;;;;10.70;100.00;99805.69;5003757;56;1143206;-76
2024/03/10 16:49:49;;;;;;;29.97;16.90;;;;;;;10.69;100.00;99808.02;5004382;56;1142714;-79
2024/03/10 16:54:55;;;;;;;30.77;17.40;;;;;;;10.67;100.00;99804.67;4942988;57;1142945;-78
2024/03/10 17:00:00;;;;;;;34.57;18.40;;;;;;;10.66;100.00;99809.60;4909499;57;1142908;-76
2024/03/10 17:05:06;;;;;;;34.50;18.07;;;;;;;10.66;100.00;99804.31;5032898;56;1142999;-79
2024/03/10 17:10:12;;;;;;;30.70;17.65;;;;;;;10.61;100.00;99799.42;4981230;57;1142852;-76
2024/03/10 17:15:18;;;;;;;35.77;20.83;;;;;;;10.60;100.00;99792.46;5021928;57;1143078;-76
2024/03/10 17:20:24;;;;;;;29.10;18.00;;;;;;;10.61;100.00;99795.94;5066021;56;1142747;-76
2024/03/10 17:25:35;;;;;;;35.47;19.80;;;;;;;10.57;100.00;99801.50;5098604;56;1142775;-77
2024/03/10 17:30:38;;;;;;;32.23;18.23;;;;;;;10.55;100.00;99808.73;5098598;56;1142827;-76
2024/03/10 17:35:43;;;;;;;27.97;16.77;;;;;;;10.53;100.00;99802.77;5118958;56;1142995;-76
2024/03/10 17:40:50;;;;;;;27.40;15.50;;;;;;;10.51;100.00;99787.52;5098003;56;1142694;-78
2024/03/10 17:45:56;;;;;;;42.60;20.93;;;;;;;10.49;100.00;99787.30;5051106;56;1142815;-78
2024/03/10 17:51:04;;;;;;;27.03;16.33;;;;;;;10.42;100.00;99789.64;5053742;56;1142919;-71
2024/03/10 17:56:09;;;;;;;27.77;17.90;;;;;;;10.40;100.00;99780.17;4992031;57;1151279;-77
2024/03/10 18:01:18;;;;;;;26.02;15.40;;;;;;;10.39;100.00;99767.44;5034795;57;1142870;-79
2024/03/10 18:06:22;;;;;;;26.27;15.70;;;;;;;10.35;100.00;99753.33;5073982;56;1142913;-82
2024/03/10 18:11:28;;;;;;;27.43;14.67;;;;;;;10.31;100.00;99766.46;4965224;56;1142612;-76
2024/03/10 18:16:33;;;;;;;26.83;15.40;;;;;;;10.27;100.00;99769.85;4934843;57;1142822;-82
2024/03/10 18:21:48;;;;;;;24.60;14.97;;;;;;;10.22;100.00;99765.48;4933676;57;1142954;-84
2024/03/10 18:26:50;;;;;;;29.47;15.97;;;;;;;10.17;100.00;99764.52;4937836;57;1143076;-80
2024/03/10 18:31:55;;;;;;;32.80;14.53;;;;;;;10.09;100.00;99770.94;4995784;57;1142825;-76
2024/03/10 18:37:01;;;;;;;22.60;14.60;;;;;;;10.02;100.00;99768.98;4995534;57;1161178;-82
2024/03/10 18:42:06;;;;;;;30.65;15.93;;;;;;;9.93;100.00;99773.25;4995968;57;1142897;-73
2024/03/10 18:47:13;;;;;;;24.63;15.20;;;;;;;9.87;100.00;99779.08;4970870;57;1141061;-81
2024/03/10 18:52:20;;;;;;;30.47;15.83;;;;;;;9.81;100.00;99789.67;5015138;57;1140665;-79
2024/03/10 18:57:26;;;;;;;29.60;15.20;;;;;;;9.76;100.00;99783.97;4997032;56;1140978;-79
2024/03/10 19:02:31;;;;;;;29.03;14.50;;;;;;;9.72;100.00;99789.16;4996580;56;1141227;-77
2024/03/10 19:07:40;;;;;;;26.82;14.10;;;;;;;9.66;100.00;99787.52;4946173;56;1141216;-81
2024/03/10 19:12:45;;;;;;;25.60;15.60;;;;;;;9.62;100.00;99784.32;4900819;57;1140854;-75
2024/03/10 19:17:51;;;;;;;22.30;14.27;;;;;;;9.56;100.00;99781.35;4899526;57;1140831;-81
2024/03/10 19:22:58;;;;;;;24.53;13.67;;;;;;;9.48;100.00;99772.27;4874504;58;1138569;-79
2024/03/10 19:28:07;;;;;;;32.53;15.57;;;;;;;9.42;100.00;99764.89;4963926;58;1140952;-71
2024/03/10 19:33:13;;;;;;;34.40;16.75;;;;;;;9.38;100.00;99770.06;4931136;57;1140718;-77
2024/03/10 19:38:19;;;;;;;22.33;14.17;;;;;;;9.36;100.00;99771.99;4989791;56;1140820;-74
2024/03/10 19:43:25;;;;;;;27.03;15.17;;;;;;;9.30;100.00;99769.89;4878691;58;1140817;-78
2024/03/10 19:48:31;;;;;;;27.37;15.47;;;;;;;9.28;100.00;99774.45;4877797;57;1140994;-74
2024/03/10 19:53:37;;;;;;;26.57;14.60;;;;;;;9.24;100.00;99773.52;5053486;56;1140827;-76
2024/03/10 19:58:42;;;;;;;23.70;13.33;;;;;;;9.28;100.00;99761.27;5098641;56;1140953;-75
2024/03/10 20:03:49;;;;;;;25.17;13.20;;;;;;;9.31;100.00;99763.65;5078862;55;1140564;-78
2024/03/10 20:08:55;;;;;;;28.10;14.73;;;;;;;9.30;100.00;99759.34;4991169;57;1140593;-85
2024/03/10 20:14:01;;;;;;;27.40;14.33;;;;;;;9.33;100.00;99763.01;5088010;56;1140862;-76
2024/03/10 20:19:07;;;;;;;27.17;13.75;;;;;;;9.35;100.00;99770.80;5078594;56;1140716;-72
2024/03/10 20:24:12;;;;;;;22.67;12.90;;;;;;;9.42;100.00;99775.45;5079228;55;1140975;-78
2024/03/10 20:29:18;;;;;;;25.97;13.72;;;;;;;9.50;100.00;99773.45;5011408;57;1140718;-81
2024/03/10 20:34:24;;;;;;;36.70;17.67;;;;;;;9.55;100.00;99772.59;4983382;57;1140923;-76
2024/03/10 20:39:30;;;;;;;25.10;12.80;;;;;;;9.60;100.00;99773.53;5065437;56;1140822;-77
2024/03/10 20:44:35;;;;;;;25.17;13.97;;;;;;;9.63;100.00;99773.25;5079492;56;1140838;-75
2024/03/10 20:49:41;;;;;;;26.50;15.40;;;;;;;9.67;100.00;99776.82;4993200;57;1140906;-80
2024/03/10 20:54:50;;;;;;;31.97;15.43;;;;;;;9.70;100.00;99779.69;5098852;56;1140440;-74
2024/03/10 20:59:54;;;;;;;23.87;13.07;;;;;;;9.71;100.00;99769.48;5098824;56;1140814;-80
2024/03/10 21:04:59;;;;;;;22.47;12.17;;;;;;;9.76;100.00;99771.25;5118960;56;1140769;-78
2024/03/10 21:10:09;;;;;;;26.97;14.50;;;;;;;9.77;100.00;99767.16;5099086;56;1140950;-71
2024/03/10 21:15:14;;;;;;;55.70;25.55;;;;;;;9.79;100.00;99776.24;5098463;56;1140882;-73
2024/03/10 21:20:22;;;;;;;38.27;20.13;;;;;;;9.78;100.00;99765.33;5119171;56;1140768;-78
2024/03/10 21:25:28;;;;;;;27.77;14.90;;;;;;;9.77;100.00;99765.00;5099036;56;1140672;-71
2024/03/10 21:30:34;;;;;;;34.50;17.17;;;;;;;9.76;100.00;99758.05;5099096;56;1141033;-79
2024/03/10 21:35:39;;;;;;;35.53;17.83;;;;;;;9.77;100.00;99768.48;5117557;56;1140914;-71
2024/03/10 21:40:45;;;;;;;31.27;15.07;;;;;;;9.77;100.00;99764.52;5098691;56;1140777;-73
2024/03/10 21:45:51;;;;;;;28.93;13.97;;;;;;;9.77;100.00;99773.77;5034910;56;1140751;-77
2024/03/10 21:50:58;;;;;;;22.97;11.87;;;;;;;9.76;100.00;99778.69;4832919;58;1140645;-75
2024/03/10 21:56:04;;;;;;;24.47;12.57;;;;;;;9.80;100.00;99778.75;4916124;57;1140865;-73
2024/03/10 22:01:10;;;;;;;23.77;12.78;;;;;;;9.76;100.00;99772.58;4911467;57;1140919;-73
2024/03/10 22:06:17;;;;;;;28.27;14.05;;;;;;;9.71;100.00;99769.00;5016319;56;1140931;-79
2024/03/10 22:11:23;;;;;;;31.07;13.03;;;;;;;9.69;100.00;99763.01;4916679;56;1140908;-70
2024/03/10 22:16:28;;;;;;;23.53;12.80;;;;;;;9.70;100.00;99767.33;4912299;56;1140980;-80
2024/03/10 22:21:34;;;;;;;20.43;11.23;;;;;;;9.68;100.00;99765.78;4997389;56;1140786;-70
2024/03/10 22:26:39;;;;;;;28.53;12.27;;;;;;;9.68;100.00;99753.41;5016462;57;1140728;-74
2024/03/10 22:31:45;;;;;;;24.00;11.77;;;;;;;9.68;100.00;99765.30;4920172;56;1141040;-81
2024/03/10 22:36:50;;;;;;;20.77;12.87;;;;;;;9.69;100.00;99761.69;4916562;57;1140810;-72
2024/03/10 22:41:57;;;;;;;25.57;12.10;;;;;;;9.66;100.00;99762.42;4935948;57;1140984;-76
2024/03/10 22:47:02;;;;;;;19.77;10.77;;;;;;;9.67;100.00;99755.70;4938675;57;1140771;-71
2024/03/10 22:52:08;;;;;;;18.67;11.93;;;;;;;9.65;100.00;99747.07;4999473;57;1140670;-70
2024/03/10 22:57:14;;;;;;;26.90;13.53;;;;;;;9.61;100.00;99749.64;5056016;56;1141133;-76
2024/03/10 23:02:20;;;;;;;23.13;13.80;;;;;;;9.53;100.00;99745.48;5024863;56;1140934;-79
2024/03/10 23:07:28;;;;;;;23.23;12.90;;;;;;;9.49;100.00;99728.23;5021453;57;1140819;-77
2024/03/10 23:12:33;;;;;;;24.35;12.80;;;;;;;9.39;100.00;99727.36;5030776;56;1140826;-80